Time;durP1;ratioP1;P1;durP2;ratioP2;P2;SDS_P1;SDS_P2;PMS_P1;PMS_P2;Temp;Humidity;BMP_temperature;BMP_pressure;BME280_temperature;BME280_humidity;BME280_pressure;Samples;Min_cycle;Max_cycle;Signal;HPM_P1;HPM_P2
2022/03/28 00:00:10;;;;;;;10.10;6.20;;;4.30;99.90;;;;;;4955929;28;20680;-79
2022/03/28 00:02:40;;;;;;;10.63;6.30;;;4.30;99.90;;;;;;4956122;28;20205;-79
2022/03/28 00:05:06;;;;;;;11.97;5.77;;;4.20;99.90;;;;;;4956644;28;20249;-79
2022/03/28 00:07:32;;;;;;;10.67;6.03;;;4.20;99.90;;;;;;4956319;28;20184;-79
2022/03/28 00:09:58;;;;;;;10.03;5.80;;;4.10;99.90;;;;;;4974910;28;20203;-79
2022/03/28 00:12:24;;;;;;;10.07;5.83;;;4.20;99.90;;;;;;4956734;28;20575;-79
2022/03/28 00:14:50;;;;;;;13.00;6.03;;;4.30;99.90;;;;;;4973587;28;20223;-78
2022/03/28 00:17:16;;;;;;;11.37;6.13;;;4.10;99.90;;;;;;4957553;28;20274;-80
2022/03/28 00:19:42;;;;;;;10.60;5.67;;;4.10;99.90;;;;;;4956477;28;20577;-79
2022/03/28 00:22:07;;;;;;;10.50;6.07;;;4.10;99.90;;;;;;4973359;28;20209;-79
2022/03/28 00:24:33;;;;;;;9.80;6.23;;;4.20;99.90;;;;;;4957056;28;20597;-78
2022/03/28 00:26:59;;;;;;;11.50;6.47;;;4.10;99.90;;;;;;4956796;28;20195;-80
2022/03/28 00:29:24;;;;;;;10.97;6.47;;;4.10;99.90;;;;;;4956661;28;20221;-80
2022/03/28 00:31:50;;;;;;;11.80;5.87;;;4.10;99.90;;;;;;4973007;28;20250;-80
2022/03/28 00:34:21;;;;;;;10.73;6.10;;;4.10;99.90;;;;;;4973664;28;20188;-80
2022/03/28 00:36:48;;;;;;;10.93;6.17;;;4.10;99.90;;;;;;4954914;28;20189;-80
2022/03/28 00:39:16;;;;;;;11.57;6.17;;;4.10;99.90;;;;;;4957220;28;20188;-77
2022/03/28 00:41:42;;;;;;;10.80;6.50;;;4.00;99.90;;;;;;4974978;28;20697;-79
2022/03/28 00:44:07;;;;;;;10.10;5.43;;;3.90;99.90;;;;;;4976855;28;20272;-79
2022/03/28 00:46:35;;;;;;;11.43;6.77;;;3.90;99.90;;;;;;4958304;28;20291;-79
2022/03/28 00:49:01;;;;;;;10.20;6.07;;;3.90;99.90;;;;;;4977143;28;20654;-80
2022/03/28 00:51:26;;;;;;;10.73;6.33;;;3.90;99.90;;;;;;4958927;28;20284;-79
2022/03/28 00:53:52;;;;;;;12.23;6.47;;;3.80;99.90;;;;;;4977540;28;20211;-79
2022/03/28 00:56:18;;;;;;;10.70;6.67;;;3.70;99.90;;;;;;4959182;28;20201;-79
2022/03/28 00:58:45;;;;;;;12.00;7.20;;;3.70;99.90;;;;;;4959726;28;20177;-78
2022/03/28 01:01:11;;;;;;;14.03;7.77;;;3.70;99.90;;;;;;4976967;28;20185;-79
2022/03/28 01:03:37;;;;;;;12.70;7.47;;;3.60;99.90;;;;;;4978055;28;20235;-80
2022/03/28 01:06:04;;;;;;;13.40;6.90;;;3.60;99.90;;;;;;4969381;28;20185;-79
2022/03/28 01:08:31;;;;;;;13.03;7.73;;;3.60;99.90;;;;;;4979020;28;20181;-81
2022/03/28 01:10:59;;;;;;;11.73;6.97;;;3.60;99.90;;;;;;4962193;28;20204;-78
2022/03/28 01:13:25;;;;;;;12.33;7.47;;;3.60;99.90;;;;;;4977622;28;20587;-80
2022/03/28 01:15:51;;;;;;;11.03;6.87;;;3.60;99.90;;;;;;4962004;28;20574;-79
2022/03/28 01:18:17;;;;;;;13.50;7.17;;;3.50;99.90;;;;;;4963773;28;20196;-79
2022/03/28 01:20:42;;;;;;;10.10;6.33;;;3.50;99.90;;;;;;4961195;28;20173;-80
2022/03/28 01:23:10;;;;;;;12.17;6.87;;;3.50;99.90;;;;;;4976956;28;20204;-78
2022/03/28 01:25:36;;;;;;;11.40;6.97;;;3.50;99.90;;;;;;4968802;28;20258;-79
2022/03/28 01:28:02;;;;;;;12.33;7.13;;;3.40;99.90;;;;;;4961670;28;20203;-81
2022/03/28 01:30:30;;;;;;;11.30;6.67;;;3.40;99.90;;;;;;4961052;28;20598;-80
2022/03/28 01:32:57;;;;;;;12.43;6.87;;;3.50;99.90;;;;;;4960303;28;20559;-80
2022/03/28 01:35:35;;;;;;;11.77;6.57;;;3.50;99.90;;;;;;4978484;28;20211;-78
2022/03/28 01:38:06;;;;;;;12.43;6.90;;;3.40;99.90;;;;;;4976178;28;20191;-78
2022/03/28 01:40:33;;;;;;;13.67;7.00;;;3.40;99.90;;;;;;4976141;28;20185;-79
2022/03/28 01:42:59;;;;;;;12.53;7.00;;;3.40;99.90;;;;;;4978236;28;20230;-78
2022/03/28 01:45:25;;;;;;;13.47;7.30;;;3.50;99.90;;;;;;4977085;28;20556;-80
2022/03/28 01:47:51;;;;;;;11.43;6.57;;;3.30;99.90;;;;;;4977029;28;20271;-80
2022/03/28 01:50:17;;;;;;;12.13;7.10;;;3.40;99.90;;;;;;4960663;28;20196;-78
2022/03/28 01:52:43;;;;;;;15.40;6.90;;;3.40;99.90;;;;;;4974609;28;20216;-78
2022/03/28 01:55:10;;;;;;;14.70;6.63;;;3.30;99.90;;;;;;4976320;28;20201;-78
2022/03/28 01:57:38;;;;;;;12.33;7.63;;;3.30;99.90;;;;;;4959576;28;20674;-79
2022/03/28 02:00:06;;;;;;;12.20;6.80;;;3.30;99.90;;;;;;4976284;28;20188;-78
2022/03/28 02:02:32;;;;;;;11.73;7.20;;;3.30;99.90;;;;;;4959589;28;20264;-78
2022/03/28 02:04:58;;;;;;;15.37;7.30;;;3.20;99.90;;;;;;4977335;28;20654;-78
2022/03/28 02:07:23;;;;;;;10.47;5.87;;;3.20;99.90;;;;;;4977761;28;20188;-78
2022/03/28 02:09:49;;;;;;;11.87;5.77;;;3.10;99.90;;;;;;4975468;28;20195;-78
2022/03/28 02:12:14;;;;;;;12.30;6.30;;;3.10;99.90;;;;;;4961247;28;20575;-78
2022/03/28 02:14:40;;;;;;;11.57;6.07;;;3.00;99.90;;;;;;4960322;28;20798;-78
2022/03/28 02:17:06;;;;;;;9.37;6.13;;;3.00;99.90;;;;;;4959607;28;20185;-79
2022/03/28 02:19:31;;;;;;;9.67;5.80;;;2.70;99.90;;;;;;4976733;28;20277;-80
2022/03/28 02:21:57;;;;;;;10.03;5.93;;;2.50;99.90;;;;;;4977257;28;20223;-79
2022/03/28 02:24:22;;;;;;;10.60;6.20;;;2.60;99.90;;;;;;4977585;28;20276;-80
2022/03/28 02:26:48;;;;;;;9.93;6.23;;;2.60;99.90;;;;;;4958640;28;20185;-79
2022/03/28 02:29:13;;;;;;;11.20;6.23;;;2.70;99.90;;;;;;4978170;28;20207;-78
2022/03/28 02:31:39;;;;;;;9.00;5.13;;;2.70;99.90;;;;;;4976949;28;20278;-80
2022/03/28 02:34:05;;;;;;;11.77;6.83;;;2.60;99.90;;;;;;4959989;28;20185;-78
2022/03/28 02:36:30;;;;;;;12.70;5.80;;;2.70;99.90;;;;;;4959078;28;20603;-80
2022/03/28 02:38:56;;;;;;;11.13;6.63;;;2.70;99.90;;;;;;4976594;28;20193;-79
2022/03/28 02:41:21;;;;;;;10.57;6.50;;;2.60;99.90;;;;;;4976150;28;20187;-79
2022/03/28 02:43:48;;;;;;;10.63;6.23;;;2.60;99.90;;;;;;4959254;28;20261;-80
2022/03/28 02:46:13;;;;;;;11.23;6.77;;;2.60;99.90;;;;;;4958660;28;20549;-78
2022/03/28 02:48:39;;;;;;;11.90;5.93;;;2.80;99.90;;;;;;4959947;28;20199;-78
2022/03/28 02:51:05;;;;;;;11.40;6.60;;;2.80;99.90;;;;;;4976410;28;20192;-78
2022/03/28 02:53:31;;;;;;;14.53;8.10;;;2.90;99.90;;;;;;4976993;28;20226;-79
2022/03/28 02:55:58;;;;;;;13.80;7.53;;;3.00;99.90;;;;;;4959629;28;20216;-77
2022/03/28 02:58:24;;;;;;;14.93;8.73;;;3.00;99.90;;;;;;4975877;28;20268;-78
2022/03/28 03:00:49;;;;;;;16.50;8.87;;;3.00;99.90;;;;;;4959282;28;20741;-79
2022/03/28 03:03:15;;;;;;;14.87;8.93;;;3.00;99.90;;;;;;4959417;28;20210;-79
2022/03/28 03:05:42;;;;;;;16.43;9.23;;;3.10;99.90;;;;;;4959000;28;20226;-79
2022/03/28 03:08:08;;;;;;;18.83;9.43;;;3.00;99.90;;;;;;4956833;28;20221;-78
2022/03/28 03:10:34;;;;;;;17.73;9.03;;;2.90;99.90;;;;;;4975641;28;20180;-79
2022/03/28 03:13:00;;;;;;;16.60;8.70;;;2.80;99.90;;;;;;4975672;28;20602;-80
2022/03/28 03:15:25;;;;;;;19.57;8.87;;;2.80;99.90;;;;;;4975254;28;20278;-80
2022/03/28 03:17:51;;;;;;;17.17;9.00;;;2.80;99.90;;;;;;4958962;28;20211;-79
2022/03/28 03:20:17;;;;;;;18.00;8.93;;;2.70;99.90;;;;;;4957955;28;20275;-78
2022/03/28 03:22:43;;;;;;;16.03;9.03;;;2.70;99.90;;;;;;4958543;28;20199;-79
2022/03/28 03:25:09;;;;;;;16.47;8.70;;;2.70;99.90;;;;;;4959872;28;20188;-78
2022/03/28 03:27:38;;;;;;;17.17;9.07;;;2.70;99.90;;;;;;4959076;28;20195;-79
2022/03/28 03:30:08;;;;;;;17.50;7.93;;;2.50;99.90;;;;;;4975283;28;20275;-79
2022/03/28 03:32:35;;;;;;;15.03;8.53;;;2.50;99.90;;;;;;4957373;28;20672;-79
2022/03/28 03:35:05;;;;;;;17.27;9.97;;;2.50;99.90;;;;;;4957917;28;20196;-80
2022/03/28 03:37:31;;;;;;;15.20;8.90;;;2.50;99.90;;;;;;4958107;28;20187;-80
2022/03/28 03:39:57;;;;;;;26.23;14.37;;;2.50;99.90;;;;;;4958167;28;20596;-78
2022/03/28 03:42:22;;;;;;;41.53;22.23;;;2.60;99.90;;;;;;4959270;28;20291;-78
2022/03/28 03:44:48;;;;;;;38.93;20.93;;;2.70;99.90;;;;;;4974648;28;20181;-78
2022/03/28 03:47:13;;;;;;;29.67;20.83;;;2.70;99.90;;;;;;4974734;28;20180;-79
2022/03/28 03:49:39;;;;;;;28.27;15.73;;;2.70;99.90;;;;;;4974447;28;20234;-78
2022/03/28 03:52:05;;;;;;;21.73;12.03;;;2.70;99.90;;;;;;4976194;28;21250;-79
2022/03/28 03:54:31;;;;;;;21.50;11.50;;;2.70;99.90;;;;;;4956943;28;20209;-78
2022/03/28 03:56:57;;;;;;;19.80;10.97;;;2.60;99.90;;;;;;4957467;28;20688;-79
2022/03/28 03:59:23;;;;;;;19.23;10.40;;;2.50;99.90;;;;;;4955921;28;20188;-78
2022/03/28 04:01:48;;;;;;;23.30;12.23;;;2.50;99.90;;;;;;4956921;28;20201;-80
2022/03/28 04:04:14;;;;;;;19.13;11.37;;;2.50;99.90;;;;;;4958194;28;20177;-78
2022/03/28 04:06:39;;;;;;;16.93;9.90;;;2.40;99.90;;;;;;4974883;28;20672;-79
2022/03/28 04:09:06;;;;;;;16.73;9.93;;;2.30;99.90;;;;;;4958193;28;20611;-79
2022/03/28 04:11:31;;;;;;;16.23;8.63;;;2.20;99.90;;;;;;4956889;28;20181;-78
2022/03/28 04:13:57;;;;;;;15.40;9.07;;;2.10;99.90;;;;;;4975189;28;20231;-80
2022/03/28 04:16:23;;;;;;;17.93;8.90;;;2.10;99.90;;;;;;4972631;28;20208;-79
2022/03/28 04:18:49;;;;;;;16.53;9.50;;;2.20;99.90;;;;;;4958731;28;20238;-79
2022/03/28 04:21:15;;;;;;;16.07;9.13;;;2.20;99.90;;;;;;4958918;28;20185;-79
2022/03/28 04:23:41;;;;;;;17.03;8.60;;;2.30;99.90;;;;;;4960793;28;20197;-79
2022/03/28 04:26:07;;;;;;;17.70;8.77;;;2.20;99.90;;;;;;4975539;28;20188;-78
2022/03/28 04:28:32;;;;;;;18.00;9.10;;;2.10;99.90;;;;;;4961035;28;20573;-79
2022/03/28 04:30:58;;;;;;;15.43;8.30;;;2.00;99.90;;;;;;4959755;28;20195;-80
2022/03/28 04:33:24;;;;;;;11.53;7.23;;;2.00;99.90;;;;;;4959698;28;20302;-80
2022/03/28 04:35:50;;;;;;;17.00;8.80;;;2.00;99.90;;;;;;4976665;28;20207;-80
2022/03/28 04:38:16;;;;;;;16.53;8.67;;;2.10;99.90;;;;;;4976608;28;20183;-78
2022/03/28 04:40:42;;;;;;;14.60;8.63;;;2.10;99.90;;;;;;4960846;28;20184;-80
2022/03/28 04:43:08;;;;;;;17.53;8.53;;;2.00;99.90;;;;;;4960666;28;20574;-78
2022/03/28 04:45:33;;;;;;;15.87;8.40;;;2.00;99.90;;;;;;4962151;28;20657;-79
2022/03/28 04:48:00;;;;;;;14.40;7.70;;;2.00;99.90;;;;;;4959317;28;20672;-79
2022/03/28 04:50:27;;;;;;;13.90;7.77;;;2.00;99.90;;;;;;4976767;28;20188;-77
2022/03/28 04:52:53;;;;;;;15.97;7.60;;;1.90;99.90;;;;;;4968186;28;20224;-79
2022/03/28 04:55:18;;;;;;;16.80;8.10;;;2.00;99.90;;;;;;4960689;28;20216;-79
2022/03/28 04:57:44;;;;;;;15.80;7.37;;;2.00;99.90;;;;;;4961480;28;20184;-79
2022/03/28 05:00:11;;;;;;;14.57;8.37;;;1.80;99.90;;;;;;4960289;28;20181;-80
2022/03/28 05:02:37;;;;;;;14.50;8.10;;;1.90;99.90;;;;;;4960933;28;20320;-79
2022/03/28 05:05:04;;;;;;;13.80;8.30;;;1.80;99.90;;;;;;4960122;28;20414;-79
2022/03/28 05:07:30;;;;;;;16.43;8.50;;;2.00;99.90;;;;;;4977082;28;20188;-79
2022/03/28 05:09:57;;;;;;;15.47;8.50;;;2.00;99.90;;;;;;4959300;28;20241;-79
2022/03/28 05:12:26;;;;;;;15.50;8.20;;;2.00;99.90;;;;;;4958776;28;20208;-79
2022/03/28 05:14:53;;;;;;;14.80;8.37;;;2.00;99.90;;;;;;4977010;28;20236;-79
2022/03/28 05:17:22;;;;;;;14.93;7.90;;;2.00;99.90;;;;;;4960125;28;21186;-80
2022/03/28 05:19:52;;;;;;;16.00;8.53;;;2.00;99.90;;;;;;4977206;28;20184;-79
2022/03/28 05:22:19;;;;;;;12.13;6.83;;;2.00;99.90;;;;;;4960592;28;20566;-79
2022/03/28 05:24:45;;;;;;;14.13;8.17;;;2.10;99.90;;;;;;4977573;28;21123;-79
2022/03/28 05:27:10;;;;;;;19.00;8.60;;;2.20;99.90;;;;;;4960530;28;20711;-79
2022/03/28 05:29:36;;;;;;;26.60;11.57;;;2.30;99.90;;;;;;4958967;28;20185;-79
2022/03/28 05:32:03;;;;;;;24.33;11.43;;;2.30;99.90;;;;;;4976649;28;20254;-80
2022/03/28 05:34:30;;;;;;;25.70;12.43;;;2.50;99.90;;;;;;4977792;28;20177;-79
2022/03/28 05:37:00;;;;;;;24.13;11.77;;;2.50;99.90;;;;;;4976201;28;20667;-80
2022/03/28 05:39:26;;;;;;;31.47;14.33;;;2.60;99.90;;;;;;4959508;28;20267;-80
2022/03/28 05:41:52;;;;;;;25.03;12.17;;;2.70;99.90;;;;;;4976529;28;20236;-79
2022/03/28 05:44:19;;;;;;;23.80;12.57;;;2.70;99.90;;;;;;4977797;28;20185;-79
2022/03/28 05:46:45;;;;;;;30.57;13.43;;;2.80;99.90;;;;;;4959948;28;20248;-79
2022/03/28 05:49:11;;;;;;;30.00;13.27;;;2.80;99.90;;;;;;4959556;28;20197;-78
2022/03/28 05:51:37;;;;;;;30.90;14.10;;;2.90;99.90;;;;;;4975892;28;20189;-79
2022/03/28 05:54:03;;;;;;;29.03;14.50;;;3.10;99.90;;;;;;4960450;28;20794;-79
2022/03/28 05:56:28;;;;;;;32.37;15.87;;;3.20;99.90;;;;;;4958509;28;21151;-79
2022/03/28 05:58:54;;;;;;;33.80;15.77;;;3.20;99.90;;;;;;4959490;28;20891;-79
2022/03/28 06:01:19;;;;;;;37.77;19.13;;;3.30;99.90;;;;;;4975894;28;20317;-79
2022/03/28 06:03:45;;;;;;;38.10;18.40;;;3.30;99.90;;;;;;4976346;28;20188;-79
2022/03/28 06:06:11;;;;;;;34.17;17.57;;;3.50;99.90;;;;;;4960378;28;20188;-79
2022/03/28 06:08:37;;;;;;;30.13;15.43;;;3.60;99.90;;;;;;4976772;28;20204;-79
2022/03/28 06:11:03;;;;;;;33.83;16.70;;;3.70;99.90;;;;;;4975853;28;20274;-79
2022/03/28 06:13:30;;;;;;;29.67;16.00;;;3.80;99.90;;;;;;4960655;28;20859;-79
2022/03/28 06:15:55;;;;;;;26.60;15.07;;;4.00;99.90;;;;;;4977215;28;20574;-79
2022/03/28 06:18:21;;;;;;;33.43;15.07;;;4.20;99.90;;;;;;4959338;28;20196;-79
2022/03/28 06:20:47;;;;;;;31.10;16.20;;;4.30;99.90;;;;;;4959102;28;20195;-80
2022/03/28 06:23:12;;;;;;;33.83;15.87;;;4.30;99.90;;;;;;4958491;28;20200;-79
2022/03/28 06:25:38;;;;;;;31.17;15.83;;;4.40;99.90;;;;;;4950379;28;20555;-84
2022/03/28 06:28:04;;;;;;;31.50;17.30;;;4.60;99.90;;;;;;4955447;28;20199;-80
2022/03/28 06:30:30;;;;;;;34.53;16.93;;;4.70;99.90;;;;;;4954870;28;20697;-80
2022/03/28 06:32:56;;;;;;;28.50;15.43;;;4.90;99.90;;;;;;4948832;28;20204;-80
2022/03/28 06:35:21;;;;;;;26.47;14.83;;;5.10;99.90;;;;;;4955846;28;20786;-80
2022/03/28 06:37:52;;;;;;;28.07;15.20;;;5.30;99.90;;;;;;4951014;28;20185;-80
2022/03/28 06:40:20;;;;;;;24.17;13.13;;;5.50;99.90;;;;;;4976368;28;20294;-80
2022/03/28 06:42:46;;;;;;;20.53;11.40;;;5.70;99.90;;;;;;4965975;28;20586;-80
2022/03/28 06:45:12;;;;;;;17.20;10.30;;;5.90;99.90;;;;;;4975611;28;20188;-80
2022/03/28 06:47:38;;;;;;;14.47;7.97;;;6.20;99.90;;;;;;4947565;28;20433;-80
2022/03/28 06:50:05;;;;;;;17.60;9.63;;;6.40;99.90;;;;;;4966705;28;20493;-80
2022/03/28 06:52:32;;;;;;;21.53;11.03;;;6.50;99.90;;;;;;4972397;28;20252;-80
2022/03/28 06:54:58;;;;;;;25.83;13.10;;;6.50;99.90;;;;;;4953464;28;20295;-80
2022/03/28 06:57:24;;;;;;;27.53;14.00;;;6.40;99.90;;;;;;4947986;28;20649;-80
2022/03/28 06:59:49;;;;;;;27.20;12.47;;;6.50;99.90;;;;;;4948473;28;20185;-79
2022/03/28 07:02:15;;;;;;;26.50;13.40;;;6.50;99.90;;;;;;4952487;28;20299;-80
2022/03/28 07:04:41;;;;;;;28.73;13.47;;;6.60;99.90;;;;;;4952177;28;20212;-79
2022/03/28 07:07:08;;;;;;;31.07;13.77;;;6.60;99.90;;;;;;4955429;28;20188;-79
2022/03/28 07:09:35;;;;;;;29.37;13.57;;;6.60;99.90;;;;;;4962547;28;20193;-80
2022/03/28 07:12:03;;;;;;;25.60;12.90;;;6.70;99.90;;;;;;4969913;28;20208;-80
2022/03/28 07:14:28;;;;;;;27.67;12.00;;;6.70;99.90;;;;;;4957103;28;20209;-87
2022/03/28 07:16:54;;;;;;;29.20;13.30;;;6.70;99.90;;;;;;4957805;28;20304;-83
2022/03/28 07:19:19;;;;;;;23.97;12.17;;;6.80;99.90;;;;;;4974403;28;20263;-84
2022/03/28 07:21:45;;;;;;;29.67;12.90;;;6.90;99.90;;;;;;4970673;28;20220;-84
2022/03/28 07:24:11;;;;;;;22.80;12.17;;;6.80;99.90;;;;;;4952118;28;20622;-83
2022/03/28 07:26:36;;;;;;;23.53;13.60;;;6.60;99.90;;;;;;4955398;28;20633;-83
2022/03/28 07:29:04;;;;;;;22.23;11.53;;;6.80;99.90;;;;;;4965739;28;20197;-87
2022/03/28 07:31:30;;;;;;;23.17;11.07;;;6.90;99.90;;;;;;4954013;28;20196;-83
2022/03/28 07:34:29;;;;;;;27.27;13.23;;;7.00;99.90;;;;;;4969149;28;20226;-83
2022/03/28 07:36:43;;;;;;;24.47;12.33;;;7.00;99.90;;;;;;4968793;28;20217;-86
2022/03/28 07:39:08;;;;;;;23.13;12.33;;;7.00;99.90;;;;;;4953848;28;20192;-82
2022/03/28 07:41:34;;;;;;;25.80;12.73;;;7.00;99.90;;;;;;4951417;28;20203;-83
2022/03/28 07:44:00;;;;;;;22.87;11.53;;;7.20;99.90;;;;;;4954170;28;20559;-83
2022/03/28 07:46:25;;;;;;;21.33;11.30;;;7.40;99.90;;;;;;4954458;28;20188;-84
2022/03/28 07:48:51;;;;;;;22.27;11.23;;;7.60;99.90;;;;;;4953362;28;20192;-83
2022/03/28 07:51:16;;;;;;;27.63;13.67;;;7.70;99.90;;;;;;4977136;28;20192;-80
2022/03/28 07:53:42;;;;;;;24.20;12.17;;;7.90;99.90;;;;;;4945922;28;20235;-79
2022/03/28 07:56:08;;;;;;;22.23;11.60;;;7.90;99.90;;;;;;4948905;28;20218;-80
2022/03/28 07:58:34;;;;;;;24.30;11.93;;;7.90;99.90;;;;;;4952285;28;20282;-80
2022/03/28 08:00:59;;;;;;;23.10;12.07;;;7.80;99.90;;;;;;4951204;28;20634;-78
2022/03/28 08:03:25;;;;;;;23.03;12.10;;;7.80;99.90;;;;;;4950536;28;20215;-79
2022/03/28 08:05:53;;;;;;;26.43;13.27;;;7.60;99.90;;;;;;4950811;28;20192;-79
2022/03/28 08:08:19;;;;;;;22.53;12.40;;;7.50;99.90;;;;;;4969718;28;20195;-79
2022/03/28 08:10:45;;;;;;;29.60;13.07;;;7.30;99.90;;;;;;4953362;28;20189;-79
2022/03/28 08:13:10;;;;;;;30.93;13.70;;;7.40;99.90;;;;;;4950566;28;20320;-79
2022/03/28 08:15:36;;;;;;;31.83;14.97;;;7.50;99.90;;;;;;4967880;28;20212;-79
2022/03/28 08:18:02;;;;;;;27.73;13.50;;;7.70;99.90;;;;;;4953036;28;20197;-79
2022/03/28 08:20:28;;;;;;;26.03;13.90;;;8.00;99.90;;;;;;4970357;28;20253;-79
2022/03/28 08:22:54;;;;;;;25.73;13.03;;;8.30;99.90;;;;;;4949429;28;20355;-83
2022/03/28 08:25:21;;;;;;;31.70;15.20;;;8.40;99.90;;;;;;4969601;28;20200;-85
2022/03/28 08:27:48;;;;;;;26.40;13.43;;;8.60;99.90;;;;;;4965131;28;20201;-84
2022/03/28 08:30:14;;;;;;;27.30;14.30;;;8.60;99.90;;;;;;4948587;28;20231;-86
2022/03/28 08:32:41;;;;;;;28.13;14.00;;;8.70;99.90;;;;;;4958900;28;20260;-86
2022/03/28 08:35:07;;;;;;;23.33;12.20;;;8.90;99.90;;;;;;4966167;28;20237;-85
2022/03/28 08:37:33;;;;;;;24.87;14.23;;;8.90;99.90;;;;;;4946584;28;20227;-82
2022/03/28 08:39:59;;;;;;;26.23;12.23;;;9.00;99.90;;;;;;4947972;28;20192;-79
2022/03/28 08:42:26;;;;;;;25.93;12.77;;;9.20;99.90;;;;;;4962786;28;20216;-78
2022/03/28 08:44:52;;;;;;;23.23;13.23;;;9.50;99.90;;;;;;4966158;28;20184;-78
2022/03/28 08:47:19;;;;;;;26.30;14.23;;;9.60;99.90;;;;;;4967010;28;20198;-78
2022/03/28 08:49:50;;;;;;;27.33;14.90;;;9.50;99.90;;;;;;4943994;28;20196;-78
2022/03/28 08:52:16;;;;;;;27.60;12.63;;;9.40;99.90;;;;;;4942757;28;20224;-79
2022/03/28 08:54:42;;;;;;;23.47;13.40;;;9.50;99.90;;;;;;4955956;28;20264;-78
2022/03/28 08:57:08;;;;;;;23.07;12.33;;;9.70;99.90;;;;;;4970893;28;20188;-78
2022/03/28 08:59:34;;;;;;;23.53;12.27;;;9.80;99.90;;;;;;4974513;28;20942;-78
2022/03/28 09:01:59;;;;;;;25.93;14.03;;;10.00;99.90;;;;;;4955090;28;20747;-78
2022/03/28 09:04:25;;;;;;;27.80;13.97;;;10.00;99.90;;;;;;4977729;28;21203;-78
2022/03/28 09:06:50;;;;;;;22.97;13.13;;;10.00;99.90;;;;;;4977573;28;20267;-79
2022/03/28 09:09:23;;;;;;;25.93;14.47;;;10.20;99.90;;;;;;4978185;28;20197;-79
2022/03/28 09:11:57;;;;;;;24.90;14.37;;;10.00;99.90;;;;;;4977235;28;20204;-78
2022/03/28 09:14:28;;;;;;;25.73;14.43;;;10.00;99.90;;;;;;4977845;28;20238;-78
2022/03/28 09:17:05;;;;;;;24.37;14.67;;;10.10;99.90;;;;;;4972495;28;20302;-78
2022/03/28 09:19:58;;;;;;;25.73;14.17;;;9.50;99.90;;;;;;4973927;28;20249;-78
2022/03/28 09:22:27;;;;;;;25.03;13.83;;;9.50;99.90;;;;;;4975086;28;20256;-78
2022/03/28 09:24:55;;;;;;;28.23;13.77;;;9.80;99.90;;;;;;4975981;28;20531;-78
2022/03/28 09:27:28;;;;;;;22.97;13.37;;;10.00;99.90;;;;;;4958674;28;20196;-78
2022/03/28 09:30:11;;;;;;;23.63;13.67;;;10.30;99.90;;;;;;4974059;28;20185;-85
2022/03/28 09:32:39;;;;;;;23.50;12.97;;;10.50;99.90;;;;;;4965609;28;20209;-84
2022/03/28 09:35:23;;;;;;;24.47;14.37;;;10.70;99.90;;;;;;4956725;28;20217;-82
2022/03/28 09:38:04;;;;;;;24.00;14.07;;;10.40;99.90;;;;;;4959143;28;20192;-77
2022/03/28 09:40:40;;;;;;;27.77;14.67;;;10.60;99.90;;;;;;4977697;28;20271;-79
2022/03/28 09:43:23;;;;;;;25.00;12.80;;;10.40;99.90;;;;;;4956486;28;20204;-81
2022/03/28 09:45:55;;;;;;;21.73;12.23;;;10.30;99.90;;;;;;4956002;28;20203;-82
2022/03/28 09:48:24;;;;;;;20.70;11.60;;;10.30;99.90;;;;;;4950804;28;20185;-84
2022/03/28 09:51:01;;;;;;;21.37;11.90;;;10.20;99.90;;;;;;4952003;28;20181;-84
2022/03/28 09:53:38;;;;;;;17.57;10.77;;;10.30;99.90;;;;;;4958270;28;20224;-85
2022/03/28 09:56:08;;;;;;;25.03;11.43;;;10.40;99.90;;;;;;4958880;28;20349;-84
2022/03/28 09:58:48;;;;;;;23.57;12.07;;;10.30;99.90;;;;;;4958165;28;20184;-84
2022/03/28 10:01:18;;;;;;;17.03;11.33;;;10.10;99.90;;;;;;4964192;28;20359;-84
2022/03/28 10:03:46;;;;;;;16.47;10.17;;;10.20;99.90;;;;;;4948350;28;20253;-85
2022/03/28 10:06:12;;;;;;;18.30;11.30;;;10.20;99.90;;;;;;4975678;28;20189;-84
2022/03/28 10:08:38;;;;;;;18.03;10.63;;;10.20;99.90;;;;;;4960719;28;20670;-84
2022/03/28 10:11:05;;;;;;;19.47;9.87;;;10.40;99.90;;;;;;4949453;28;20185;-86
2022/03/28 10:13:31;;;;;;;16.50;9.97;;;10.70;99.90;;;;;;4956357;28;20210;-85
2022/03/28 10:15:58;;;;;;;16.97;10.60;;;10.80;99.90;;;;;;4955537;28;20212;-85
2022/03/28 10:18:28;;;;;;;19.50;10.13;;;11.00;99.90;;;;;;4979095;28;20192;-85
2022/03/28 10:20:56;;;;;;;18.07;10.57;;;11.00;99.90;;;;;;4954028;28;20184;-84
2022/03/28 10:23:26;;;;;;;21.57;11.23;;;10.90;99.90;;;;;;4979470;28;20235;-84
2022/03/28 10:25:55;;;;;;;21.63;11.33;;;10.70;99.90;;;;;;4953154;28;20185;-84
2022/03/28 10:28:21;;;;;;;20.17;11.77;;;10.50;99.90;;;;;;4953056;28;20181;-82
2022/03/28 10:30:47;;;;;;;22.40;12.70;;;10.70;99.90;;;;;;4948478;28;20191;-84
2022/03/28 10:33:23;;;;;;;24.77;12.87;;;11.00;99.90;;;;;;4956546;28;20221;-83
2022/03/28 10:36:05;;;;;;;28.30;14.40;;;10.90;99.90;;;;;;4976830;28;20235;-83
2022/03/28 10:38:31;;;;;;;24.93;13.67;;;11.00;99.90;;;;;;4950408;28;20187;-83
2022/03/28 10:41:02;;;;;;;27.03;14.57;;;11.30;99.90;;;;;;4955978;28;20192;-83
2022/03/28 10:43:30;;;;;;;28.80;13.93;;;11.30;99.90;;;;;;4958269;28;20226;-84
2022/03/28 10:46:02;;;;;;;27.97;14.90;;;11.10;99.90;;;;;;4957686;28;20184;-84
2022/03/28 10:48:35;;;;;;;21.43;12.57;;;11.40;99.90;;;;;;4977880;28;20185;-83
2022/03/28 10:51:06;;;;;;;24.80;14.13;;;11.50;99.90;;;;;;4956600;28;20192;-84
2022/03/28 10:53:37;;;;;;;20.70;12.27;;;11.70;99.90;;;;;;4971585;28;20217;-83
2022/03/28 10:56:12;;;;;;;24.87;13.07;;;11.60;99.90;;;;;;4970238;28;20201;-83
2022/03/28 10:58:41;;;;;;;22.30;12.70;;;11.60;99.90;;;;;;4948991;28;20181;-83
2022/03/28 11:01:12;;;;;;;19.57;12.90;;;11.70;99.90;;;;;;4973221;28;20663;-82
2022/03/28 11:03:47;;;;;;;21.07;12.53;;;11.60;99.90;;;;;;4972845;28;20227;-84
2022/03/28 11:06:15;;;;;;;20.53;11.60;;;11.60;99.90;;;;;;4959225;28;20214;-84
2022/03/28 11:08:45;;;;;;;20.77;12.43;;;11.60;99.90;;;;;;4960352;28;20183;-85
2022/03/28 11:11:26;;;;;;;18.13;10.65;;;11.90;99.90;;;;;;4957347;28;20220;-84
2022/03/28 11:14:10;;;;;;;21.52;11.98;;;12.40;99.90;;;;;;4974004;28;20196;-84
2022/03/28 11:16:52;;;;;;;25.30;12.40;;;12.10;99.90;;;;;;4948962;28;20203;-84
2022/03/28 11:19:33;;;;;;;21.90;11.73;;;12.30;99.90;;;;;;4958300;28;20184;-82
2022/03/28 11:22:06;;;;;;;23.08;12.80;;;12.60;99.90;;;;;;4958494;28;20200;-82
2022/03/28 11:24:56;;;;;;;21.60;11.67;;;12.70;99.90;;;;;;4958093;28;20325;-84
2022/03/28 11:27:24;;;;;;;21.80;12.05;;;12.30;99.90;;;;;;4958688;28;20184;-84
2022/03/28 11:29:59;;;;;;;22.27;11.75;;;12.60;99.90;;;;;;4974677;28;20189;-85
2022/03/28 11:32:30;;;;;;;19.98;12.35;;;12.80;99.90;;;;;;4978386;28;20341;-84
2022/03/28 11:34:56;;;;;;;21.67;12.75;;;12.70;99.90;;;;;;4958500;28;20190;-84
2022/03/28 11:37:24;;;;;;;19.55;12.40;;;12.90;99.90;;;;;;4956956;28;20181;-79
2022/03/28 11:40:02;;;;;;;21.40;11.50;;;12.90;99.90;;;;;;4974182;28;20181;-78
2022/03/28 11:42:32;;;;;;;14.95;10.48;;;13.00;99.90;;;;;;4957033;28;20203;-79
2022/03/28 11:45:12;;;;;;;17.17;10.52;;;13.20;99.90;;;;;;4958907;28;20624;-79
2022/03/28 11:47:48;;;;;;;19.33;10.75;;;13.00;99.90;;;;;;4976487;28;20184;-78
2022/03/28 11:50:14;;;;;;;13.63;9.27;;;12.90;99.90;;;;;;4978279;28;20192;-79
2022/03/28 11:52:40;;;;;;;15.25;8.68;;;13.20;99.90;;;;;;4958546;28;20571;-78
2022/03/28 11:55:24;;;;;;;18.58;9.73;;;13.20;99.90;;;;;;4976215;28;20662;-80
2022/03/28 12:00:36;;;;;;;15.10;8.52;;;13.70;99.90;;;;;;4973484;28;20818;-77
2022/03/28 12:03:03;;;;;;;14.38;8.30;;;13.60;99.90;;;;;;4976388;28;20213;-78
2022/03/28 12:05:32;;;;;;;16.60;9.07;;;13.70;99.90;;;;;;4958389;28;20188;-85
2022/03/28 12:08:01;;;;;;;11.73;8.27;;;13.80;99.90;;;;;;4974567;28;20276;-76
2022/03/28 12:10:29;;;;;;;14.88;8.20;;;13.70;99.90;;;;;;4958027;28;20184;-77
2022/03/28 12:12:59;;;;;;;13.00;8.88;;;13.80;99.90;;;;;;4973465;28;20223;-78
2022/03/28 12:15:31;;;;;;;14.27;9.18;;;13.90;99.90;;;;;;4951049;28;20212;-80
2022/03/28 12:17:59;;;;;;;13.35;8.07;;;14.00;99.90;;;;;;4970660;28;20192;-78
2022/03/28 12:20:34;;;;;;;12.55;8.25;;;14.20;99.90;;;;;;4957430;28;20184;-77
2022/03/28 12:23:01;;;;;;;15.70;9.45;;;14.40;99.90;;;;;;4972764;28;20236;-83
2022/03/28 12:25:44;;;;;;;12.00;8.15;;;14.40;99.90;;;;;;4956158;28;20567;-77
2022/03/28 12:28:11;;;;;;;14.93;9.05;;;14.50;99.90;;;;;;4974778;28;20255;-78
2022/03/28 12:30:50;;;;;;;15.85;8.90;;;14.50;99.90;;;;;;4970780;28;20472;-79
2022/03/28 12:33:26;;;;;;;14.77;8.95;;;14.50;99.90;;;;;;4970424;28;20246;-80
2022/03/28 12:36:03;;;;;;;12.63;8.20;;;14.20;99.90;;;;;;4969234;28;20210;-79
2022/03/28 12:38:40;;;;;;;12.85;8.57;;;14.20;99.90;;;;;;4968700;28;20187;-77
2022/03/28 12:41:10;;;;;;;13.15;8.60;;;14.50;99.90;;;;;;4949783;28;20628;-77
2022/03/28 12:43:36;;;;;;;13.40;8.75;;;14.80;99.90;;;;;;4958192;28;20697;-78